sensor_id;sensor_type;location;lat;lon;timestamp;temperature;humidity
31735;DHT22;18313;48.518;9.124;2023-05-20T00:01:01;11.80;99.90
31735;DHT22;18313;48.518;9.124;2023-05-20T00:03:28;11.80;99.90
31735;DHT22;18313;48.518;9.124;2023-05-20T00:05:56;11.90;99.90
31735;DHT22;18313;48.518;9.124;2023-05-20T00:08:23;11.80;99.90
31735;DHT22;18313;48.518;9.124;2023-05-20T00:10:50;11.90;99.90
31735;DHT22;18313;48.518;9.124;2023-05-20T00:13:17;11.90;99.90
31735;DHT22;18313;48.518;9.124;2023-05-20T00:15:44;11.90;99.90
31735;DHT22;18313;48.518;9.124;2023-05-20T00:18:12;11.90;99.90
31735;DHT22;18313;48.518;9.124;2023-05-20T00:20:39;11.90;99.90
31735;DHT22;18313;48.518;9.124;2023-05-20T00:23:06;11.90;99.90
31735;DHT22;18313;48.518;9.124;2023-05-20T00:25:33;11.90;99.90
31735;DHT22;18313;48.518;9.124;2023-05-20T00:28:01;11.90;99.90
31735;DHT22;18313;48.518;9.124;2023-05-20T00:30:28;12.00;99.90
31735;DHT22;18313;48.518;9.124;2023-05-20T00:32:55;12.10;99.90
31735;DHT22;18313;48.518;9.124;2023-05-20T00:35:23;12.10;99.90
31735;DHT22;18313;48.518;9.124;2023-05-20T00:37:50;12.10;99.90
31735;DHT22;18313;48.518;9.124;2023-05-20T00:40:17;12.20;99.90
31735;DHT22;18313;48.518;9.124;2023-05-20T00:42:44;12.20;99.90
31735;DHT22;18313;48.518;9.124;2023-05-20T00:45:11;12.10;99.90
31735;DHT22;18313;48.518;9.124;2023-05-20T00:47:38;12.00;99.90
31735;DHT22;18313;48.518;9.124;2023-05-20T00:50:06;11.90;99.90
31735;DHT22;18313;48.518;9.124;2023-05-20T00:52:34;11.90;99.90
31735;DHT22;18313;48.518;9.124;2023-05-20T00:55:02;12.00;99.90
31735;DHT22;18313;48.518;9.124;2023-05-20T00:57:30;12.10;99.90
31735;DHT22;18313;48.518;9.124;2023-05-20T00:59:57;12.10;99.90
31735;DHT22;18313;48.518;9.124;2023-05-20T01:02:25;12.10;99.90
31735;DHT22;18313;48.518;9.124;2023-05-20T01:04:53;12.10;99.90
31735;DHT22;18313;48.518;9.124;2023-05-20T01:07:22;12.00;99.90
31735;DHT22;18313;48.518;9.124;2023-05-20T01:09:51;11.90;99.90
31735;DHT22;18313;48.518;9.124;2023-05-20T01:12:24;11.80;99.90
31735;DHT22;18313;48.518;9.124;2023-05-20T01:15:10;11.90;99.90
31735;DHT22;18313;48.518;9.124;2023-05-20T01:17:45;11.80;99.90
31735;DHT22;18313;48.518;9.124;2023-05-20T01:20:13;11.80;99.90
31735;DHT22;18313;48.518;9.124;2023-05-20T01:22:55;11.80;99.90
31735;DHT22;18313;48.518;9.124;2023-05-20T01:25:22;11.70;99.90
31735;DHT22;18313;48.518;9.124;2023-05-20T01:27:51;11.60;99.90
31735;DHT22;18313;48.518;9.124;2023-05-20T01:30:20;11.60;99.90
31735;DHT22;18313;48.518;9.124;2023-05-20T01:32:53;11.60;99.90
31735;DHT22;18313;48.518;9.124;2023-05-20T01:35:21;11.60;99.90
31735;DHT22;18313;48.518;9.124;2023-05-20T01:37:49;11.60;99.90
31735;DHT22;18313;48.518;9.124;2023-05-20T01:40:18;11.60;99.90
31735;DHT22;18313;48.518;9.124;2023-05-20T01:42:46;11.60;99.90
31735;DHT22;18313;48.518;9.124;2023-05-20T01:45:19;11.60;99.90
31735;DHT22;18313;48.518;9.124;2023-05-20T01:47:47;11.60;99.90
31735;DHT22;18313;48.518;9.124;2023-05-20T01:50:14;11.70;99.90
31735;DHT22;18313;48.518;9.124;2023-05-20T01:52:41;11.70;99.90
31735;DHT22;18313;48.518;9.124;2023-05-20T01:55:08;11.70;99.90
31735;DHT22;18313;48.518;9.124;2023-05-20T01:57:36;11.70;99.90
31735;DHT22;18313;48.518;9.124;2023-05-20T02:00:03;11.70;99.90
31735;DHT22;18313;48.518;9.124;2023-05-20T02:02:31;11.60;99.90
31735;DHT22;18313;48.518;9.124;2023-05-20T02:04:59;11.80;99.90
31735;DHT22;18313;48.518;9.124;2023-05-20T02:07:26;11.80;99.90
31735;DHT22;18313;48.518;9.124;2023-05-20T02:09:53;11.80;99.90
31735;DHT22;18313;48.518;9.124;2023-05-20T02:12:21;11.70;99.90
31735;DHT22;18313;48.518;9.124;2023-05-20T02:14:48;11.60;99.90
31735;DHT22;18313;48.518;9.124;2023-05-20T02:17:16;11.70;99.90
31735;DHT22;18313;48.518;9.124;2023-05-20T02:19:44;11.60;99.90
31735;DHT22;18313;48.518;9.124;2023-05-20T02:22:12;11.60;99.90
31735;DHT22;18313;48.518;9.124;2023-05-20T02:24:40;11.70;99.90
31735;DHT22;18313;48.518;9.124;2023-05-20T02:27:09;11.70;99.90
31735;DHT22;18313;48.518;9.124;2023-05-20T02:29:36;11.80;99.90
31735;DHT22;18313;48.518;9.124;2023-05-20T02:32:04;11.70;99.90
31735;DHT22;18313;48.518;9.124;2023-05-20T02:34:31;11.70;99.90
31735;DHT22;18313;48.518;9.124;2023-05-20T02:36:59;11.60;99.90
31735;DHT22;18313;48.518;9.124;2023-05-20T02:39:26;11.70;99.90
31735;DHT22;18313;48.518;9.124;2023-05-20T02:41:54;11.70;99.90
31735;DHT22;18313;48.518;9.124;2023-05-20T02:44:22;11.70;99.90
31735;DHT22;18313;48.518;9.124;2023-05-20T02:46:49;11.60;99.90
31735;DHT22;18313;48.518;9.124;2023-05-20T02:49:16;11.50;99.90
31735;DHT22;18313;48.518;9.124;2023-05-20T02:51:43;11.40;99.90
31735;DHT22;18313;48.518;9.124;2023-05-20T02:54:10;11.40;99.90
31735;DHT22;18313;48.518;9.124;2023-05-20T02:56:37;11.30;99.90
31735;DHT22;18313;48.518;9.124;2023-05-20T02:59:05;11.30;99.90
31735;DHT22;18313;48.518;9.124;2023-05-20T03:01:33;11.20;99.90
31735;DHT22;18313;48.518;9.124;2023-05-20T03:04:02;11.20;99.90
31735;DHT22;18313;48.518;9.124;2023-05-20T03:06:30;11.20;99.90
31735;DHT22;18313;48.518;9.124;2023-05-20T03:08:58;11.10;99.90
31735;DHT22;18313;48.518;9.124;2023-05-20T03:11:25;11.10;99.90
31735;DHT22;18313;48.518;9.124;2023-05-20T03:13:52;11.10;99.90
31735;DHT22;18313;48.518;9.124;2023-05-20T03:16:19;11.00;99.90
31735;DHT22;18313;48.518;9.124;2023-05-20T03:18:47;11.00;99.90
31735;DHT22;18313;48.518;9.124;2023-05-20T03:21:15;11.00;99.90
31735;DHT22;18313;48.518;9.124;2023-05-20T03:23:42;11.00;99.90
31735;DHT22;18313;48.518;9.124;2023-05-20T03:26:09;11.00;99.90
31735;DHT22;18313;48.518;9.124;2023-05-20T03:28:37;11.00;99.90
31735;DHT22;18313;48.518;9.124;2023-05-20T03:31:04;11.00;99.90
31735;DHT22;18313;48.518;9.124;2023-05-20T03:33:33;11.00;99.90
31735;DHT22;18313;48.518;9.124;2023-05-20T03:36:01;11.10;99.90
31735;DHT22;18313;48.518;9.124;2023-05-20T03:38:29;11.10;99.90
31735;DHT22;18313;48.518;9.124;2023-05-20T03:40:57;11.10;99.90
31735;DHT22;18313;48.518;9.124;2023-05-20T03:43:24;11.10;99.90
31735;DHT22;18313;48.518;9.124;2023-05-20T03:45:52;11.10;99.90
31735;DHT22;18313;48.518;9.124;2023-05-20T03:48:20;11.20;99.90
31735;DHT22;18313;48.518;9.124;2023-05-20T03:50:48;11.30;99.90
31735;DHT22;18313;48.518;9.124;2023-05-20T03:53:15;11.40;99.90
31735;DHT22;18313;48.518;9.124;2023-05-20T03:55:43;11.40;99.90
31735;DHT22;18313;48.518;9.124;2023-05-20T03:58:10;11.50;99.90
31735;DHT22;18313;48.518;9.124;2023-05-20T04:00:39;11.50;99.90
31735;DHT22;18313;48.518;9.124;2023-05-20T04:03:06;11.50;99.90
31735;DHT22;18313;48.518;9.124;2023-05-20T04:05:35;11.60;99.90
31735;DHT22;18313;48.518;9.124;2023-05-20T04:08:03;11.70;99.90
31735;DHT22;18313;48.518;9.124;2023-05-20T04:10:33;11.70;99.90
31735;DHT22;18313;48.518;9.124;2023-05-20T04:13:01;11.70;99.90
31735;DHT22;18313;48.518;9.124;2023-05-20T04:15:28;11.70;99.90
31735;DHT22;18313;48.518;9.124;2023-05-20T04:17:56;11.70;99.90
31735;DHT22;18313;48.518;9.124;2023-05-20T04:20:23;11.80;99.90
31735;DHT22;18313;48.518;9.124;2023-05-20T04:22:51;11.90;99.90
31735;DHT22;18313;48.518;9.124;2023-05-20T04:25:18;11.80;99.90
31735;DHT22;18313;48.518;9.124;2023-05-20T04:27:45;11.80;99.90
31735;DHT22;18313;48.518;9.124;2023-05-20T04:30:14;11.70;99.90
31735;DHT22;18313;48.518;9.124;2023-05-20T04:32:44;11.70;99.90
31735;DHT22;18313;48.518;9.124;2023-05-20T04:35:11;11.80;99.90
31735;DHT22;18313;48.518;9.124;2023-05-20T04:37:39;11.80;99.90
31735;DHT22;18313;48.518;9.124;2023-05-20T04:40:08;11.90;99.90
31735;DHT22;18313;48.518;9.124;2023-05-20T04:42:36;11.90;99.90
31735;DHT22;18313;48.518;9.124;2023-05-20T04:45:04;11.90;99.90
31735;DHT22;18313;48.518;9.124;2023-05-20T04:47:31;11.90;99.90
31735;DHT22;18313;48.518;9.124;2023-05-20T04:50:09;11.90;99.90
31735;DHT22;18313;48.518;9.124;2023-05-20T04:52:37;12.00;99.90
31735;DHT22;18313;48.518;9.124;2023-05-20T04:55:08;12.00;99.90
31735;DHT22;18313;48.518;9.124;2023-05-20T04:57:37;12.10;99.90
31735;DHT22;18313;48.518;9.124;2023-05-20T05:00:09;12.00;99.90
31735;DHT22;18313;48.518;9.124;2023-05-20T05:02:37;12.00;99.90
31735;DHT22;18313;48.518;9.124;2023-05-20T05:05:04;12.00;99.90
31735;DHT22;18313;48.518;9.124;2023-05-20T05:07:32;12.10;99.90
31735;DHT22;18313;48.518;9.124;2023-05-20T05:09:59;12.20;99.90
31735;DHT22;18313;48.518;9.124;2023-05-20T05:12:27;12.30;99.90
31735;DHT22;18313;48.518;9.124;2023-05-20T05:14:54;12.30;99.90
31735;DHT22;18313;48.518;9.124;2023-05-20T05:17:21;12.30;99.90
31735;DHT22;18313;48.518;9.124;2023-05-20T05:19:49;12.40;99.90
31735;DHT22;18313;48.518;9.124;2023-05-20T05:22:16;12.40;99.90
31735;DHT22;18313;48.518;9.124;2023-05-20T05:24:43;12.40;99.90
31735;DHT22;18313;48.518;9.124;2023-05-20T05:27:10;12.40;99.90
31735;DHT22;18313;48.518;9.124;2023-05-20T05:29:38;12.50;99.90
31735;DHT22;18313;48.518;9.124;2023-05-20T05:32:05;12.40;99.90
31735;DHT22;18313;48.518;9.124;2023-05-20T05:34:33;12.50;99.90
31735;DHT22;18313;48.518;9.124;2023-05-20T05:37:00;12.50;99.90
31735;DHT22;18313;48.518;9.124;2023-05-20T05:39:27;12.60;99.90
31735;DHT22;18313;48.518;9.124;2023-05-20T05:41:54;12.70;99.90
31735;DHT22;18313;48.518;9.124;2023-05-20T05:44:21;12.80;99.90
31735;DHT22;18313;48.518;9.124;2023-05-20T05:46:49;12.80;99.90
31735;DHT22;18313;48.518;9.124;2023-05-20T05:49:16;12.80;99.90
31735;DHT22;18313;48.518;9.124;2023-05-20T05:51:43;12.80;99.90
31735;DHT22;18313;48.518;9.124;2023-05-20T05:54:10;12.80;99.90
31735;DHT22;18313;48.518;9.124;2023-05-20T05:56:37;12.90;99.90
31735;DHT22;18313;48.518;9.124;2023-05-20T05:59:04;12.80;99.90
31735;DHT22;18313;48.518;9.124;2023-05-20T06:01:32;12.90;99.90
31735;DHT22;18313;48.518;9.124;2023-05-20T06:03:59;12.90;99.90
31735;DHT22;18313;48.518;9.124;2023-05-20T06:06:26;12.90;99.90
31735;DHT22;18313;48.518;9.124;2023-05-20T06:08:54;13.00;99.90
31735;DHT22;18313;48.518;9.124;2023-05-20T06:11:21;13.10;99.90
31735;DHT22;18313;48.518;9.124;2023-05-20T06:13:49;13.10;99.90
31735;DHT22;18313;48.518;9.124;2023-05-20T06:16:17;13.10;99.90
31735;DHT22;18313;48.518;9.124;2023-05-20T06:18:47;13.10;99.90
31735;DHT22;18313;48.518;9.124;2023-05-20T06:21:18;13.10;99.90
31735;DHT22;18313;48.518;9.124;2023-05-20T06:23:46;13.10;99.90
31735;DHT22;18313;48.518;9.124;2023-05-20T06:26:13;13.00;99.90
31735;DHT22;18313;48.518;9.124;2023-05-20T06:28:40;13.00;99.90
31735;DHT22;18313;48.518;9.124;2023-05-20T06:31:08;13.00;99.90
31735;DHT22;18313;48.518;9.124;2023-05-20T06:33:35;13.00;99.90
31735;DHT22;18313;48.518;9.124;2023-05-20T06:36:02;13.00;99.90
31735;DHT22;18313;48.518;9.124;2023-05-20T06:38:30;13.10;99.90
31735;DHT22;18313;48.518;9.124;2023-05-20T06:40:57;13.20;99.90
31735;DHT22;18313;48.518;9.124;2023-05-20T06:43:25;13.30;99.90
31735;DHT22;18313;48.518;9.124;2023-05-20T06:45:52;13.30;99.90
31735;DHT22;18313;48.518;9.124;2023-05-20T06:48:20;13.40;99.90
31735;DHT22;18313;48.518;9.124;2023-05-20T06:50:47;13.40;99.90
31735;DHT22;18313;48.518;9.124;2023-05-20T06:53:14;13.50;99.90
31735;DHT22;18313;48.518;9.124;2023-05-20T06:55:42;13.60;99.90
31735;DHT22;18313;48.518;9.124;2023-05-20T06:58:10;13.60;99.90
31735;DHT22;18313;48.518;9.124;2023-05-20T07:00:37;13.70;99.90
31735;DHT22;18313;48.518;9.124;2023-05-20T07:03:05;13.90;99.90
31735;DHT22;18313;48.518;9.124;2023-05-20T07:05:32;14.00;99.90
31735;DHT22;18313;48.518;9.124;2023-05-20T07:07:59;14.20;99.90
31735;DHT22;18313;48.518;9.124;2023-05-20T07:10:27;14.30;99.90
31735;DHT22;18313;48.518;9.124;2023-05-20T07:12:54;14.30;99.90
31735;DHT22;18313;48.518;9.124;2023-05-20T07:15:21;14.40;99.90
31735;DHT22;18313;48.518;9.124;2023-05-20T07:17:49;14.60;99.90
31735;DHT22;18313;48.518;9.124;2023-05-20T07:20:16;14.80;99.90
31735;DHT22;18313;48.518;9.124;2023-05-20T07:22:43;15.00;99.90
31735;DHT22;18313;48.518;9.124;2023-05-20T07:25:10;15.30;99.90
31735;DHT22;18313;48.518;9.124;2023-05-20T07:27:37;15.40;99.90
31735;DHT22;18313;48.518;9.124;2023-05-20T07:30:05;15.40;99.90
31735;DHT22;18313;48.518;9.124;2023-05-20T07:32:33;15.50;99.90
31735;DHT22;18313;48.518;9.124;2023-05-20T07:35:00;15.50;99.90
31735;DHT22;18313;48.518;9.124;2023-05-20T07:37:27;15.70;99.90
31735;DHT22;18313;48.518;9.124;2023-05-20T07:39:54;15.80;99.90
31735;DHT22;18313;48.518;9.124;2023-05-20T07:42:21;15.60;99.90
31735;DHT22;18313;48.518;9.124;2023-05-20T07:44:49;15.60;99.90
31735;DHT22;18313;48.518;9.124;2023-05-20T07:47:16;15.80;99.90
31735;DHT22;18313;48.518;9.124;2023-05-20T07:49:43;16.00;99.90
31735;DHT22;18313;48.518;9.124;2023-05-20T07:52:10;16.10;99.90
31735;DHT22;18313;48.518;9.124;2023-05-20T07:54:37;16.20;99.90
31735;DHT22;18313;48.518;9.124;2023-05-20T07:57:29;16.30;99.90
31735;DHT22;18313;48.518;9.124;2023-05-20T07:59:56;16.30;99.90
31735;DHT22;18313;48.518;9.124;2023-05-20T08:02:25;16.40;99.90
31735;DHT22;18313;48.518;9.124;2023-05-20T08:04:52;16.60;99.90
31735;DHT22;18313;48.518;9.124;2023-05-20T08:07:23;16.70;99.90
31735;DHT22;18313;48.518;9.124;2023-05-20T08:10:13;16.80;99.90
31735;DHT22;18313;48.518;9.124;2023-05-20T08:12:40;16.90;99.90
31735;DHT22;18313;48.518;9.124;2023-05-20T08:15:07;17.10;99.90
31735;DHT22;18313;48.518;9.124;2023-05-20T08:17:34;16.90;99.90
31735;DHT22;18313;48.518;9.124;2023-05-20T08:20:02;16.80;99.90
31735;DHT22;18313;48.518;9.124;2023-05-20T08:22:30;16.70;99.90
31735;DHT22;18313;48.518;9.124;2023-05-20T08:24:57;16.70;99.90
31735;DHT22;18313;48.518;9.124;2023-05-20T08:27:24;16.90;99.90
31735;DHT22;18313;48.518;9.124;2023-05-20T08:29:52;16.70;99.90
31735;DHT22;18313;48.518;9.124;2023-05-20T08:32:19;16.70;99.90
31735;DHT22;18313;48.518;9.124;2023-05-20T08:34:46;16.70;99.90
31735;DHT22;18313;48.518;9.124;2023-05-20T08:37:15;17.00;99.90
31735;DHT22;18313;48.518;9.124;2023-05-20T08:39:42;17.10;99.90
31735;DHT22;18313;48.518;9.124;2023-05-20T08:42:12;17.30;99.90
31735;DHT22;18313;48.518;9.124;2023-05-20T08:44:40;17.30;99.90
31735;DHT22;18313;48.518;9.124;2023-05-20T08:47:09;17.30;99.90
31735;DHT22;18313;48.518;9.124;2023-05-20T08:49:37;17.30;99.90
31735;DHT22;18313;48.518;9.124;2023-05-20T08:52:05;17.30;99.90
31735;DHT22;18313;48.518;9.124;2023-05-20T08:54:46;17.50;99.90
31735;DHT22;18313;48.518;9.124;2023-05-20T08:57:14;17.70;99.90
31735;DHT22;18313;48.518;9.124;2023-05-20T08:59:42;17.90;99.90
31735;DHT22;18313;48.518;9.124;2023-05-20T09:02:11;18.00;99.90
31735;DHT22;18313;48.518;9.124;2023-05-20T09:04:38;18.10;99.90
31735;DHT22;18313;48.518;9.124;2023-05-20T09:07:05;18.20;99.90
31735;DHT22;18313;48.518;9.124;2023-05-20T09:09:33;18.30;99.90
31735;DHT22;18313;48.518;9.124;2023-05-20T09:12:02;18.50;99.90
31735;DHT22;18313;48.518;9.124;2023-05-20T09:14:30;18.60;99.90
31735;DHT22;18313;48.518;9.124;2023-05-20T09:16:58;18.60;99.90
31735;DHT22;18313;48.518;9.124;2023-05-20T09:19:25;19.00;99.90
31735;DHT22;18313;48.518;9.124;2023-05-20T09:21:53;19.10;99.90
31735;DHT22;18313;48.518;9.124;2023-05-20T09:24:25;19.30;99.90
31735;DHT22;18313;48.518;9.124;2023-05-20T09:26:53;19.60;99.90
31735;DHT22;18313;48.518;9.124;2023-05-20T09:29:20;19.20;99.90
31735;DHT22;18313;48.518;9.124;2023-05-20T09:31:50;19.10;99.90
31735;DHT22;18313;48.518;9.124;2023-05-20T09:34:19;19.10;99.90
31735;DHT22;18313;48.518;9.124;2023-05-20T09:36:49;19.10;99.90
31735;DHT22;18313;48.518;9.124;2023-05-20T09:39:21;19.20;99.90
31735;DHT22;18313;48.518;9.124;2023-05-20T09:41:56;19.50;99.90
31735;DHT22;18313;48.518;9.124;2023-05-20T09:44:30;19.40;99.90
31735;DHT22;18313;48.518;9.124;2023-05-20T09:46:58;19.40;99.90
31735;DHT22;18313;48.518;9.124;2023-05-20T09:49:27;19.70;99.90
31735;DHT22;18313;48.518;9.124;2023-05-20T09:51:58;20.00;99.90
31735;DHT22;18313;48.518;9.124;2023-05-20T09:54:27;20.20;99.90
31735;DHT22;18313;48.518;9.124;2023-05-20T09:56:57;20.40;99.90
31735;DHT22;18313;48.518;9.124;2023-05-20T09:59:26;20.20;99.90
31735;DHT22;18313;48.518;9.124;2023-05-20T10:01:54;19.90;99.90
31735;DHT22;18313;48.518;9.124;2023-05-20T10:04:22;19.80;99.90
31735;DHT22;18313;48.518;9.124;2023-05-20T10:10:02;19.40;99.90
31735;DHT22;18313;48.518;9.124;2023-05-20T10:12:39;19.20;99.90
31735;DHT22;18313;48.518;9.124;2023-05-20T10:15:18;19.20;99.90
31735;DHT22;18313;48.518;9.124;2023-05-20T10:20:47;19.50;99.90
31735;DHT22;18313;48.518;9.124;2023-05-20T10:23:28;19.90;99.90
31735;DHT22;18313;48.518;9.124;2023-05-20T10:25:57;20.00;99.90
31735;DHT22;18313;48.518;9.124;2023-05-20T10:28:33;19.80;99.90
31735;DHT22;18313;48.518;9.124;2023-05-20T10:31:13;19.90;99.90
31735;DHT22;18313;48.518;9.124;2023-05-20T10:33:44;20.10;99.90
31735;DHT22;18313;48.518;9.124;2023-05-20T10:36:28;20.00;99.90
31735;DHT22;18313;48.518;9.124;2023-05-20T10:38:58;19.90;99.90
31735;DHT22;18313;48.518;9.124;2023-05-20T10:41:27;20.30;99.90
31735;DHT22;18313;48.518;9.124;2023-05-20T10:44:02;20.50;99.90
31735;DHT22;18313;48.518;9.124;2023-05-20T10:46:30;20.80;99.90
31735;DHT22;18313;48.518;9.124;2023-05-20T10:49:18;20.80;99.90
31735;DHT22;18313;48.518;9.124;2023-05-20T10:51:53;20.70;99.90
31735;DHT22;18313;48.518;9.124;2023-05-20T10:54:21;20.60;99.90
31735;DHT22;18313;48.518;9.124;2023-05-20T10:56:52;20.80;99.90
31735;DHT22;18313;48.518;9.124;2023-05-20T10:59:21;21.20;99.90
31735;DHT22;18313;48.518;9.124;2023-05-20T11:01:48;21.20;99.90
31735;DHT22;18313;48.518;9.124;2023-05-20T11:04:16;21.10;99.60
31735;DHT22;18313;48.518;9.124;2023-05-20T11:06:50;21.30;99.90
31735;DHT22;18313;48.518;9.124;2023-05-20T11:09:20;21.40;99.90
31735;DHT22;18313;48.518;9.124;2023-05-20T11:11:49;21.40;99.90
31735;DHT22;18313;48.518;9.124;2023-05-20T11:14:17;21.40;99.90
31735;DHT22;18313;48.518;9.124;2023-05-20T11:16:50;21.60;99.90
31735;DHT22;18313;48.518;9.124;2023-05-20T11:19:17;21.80;99.90
31735;DHT22;18313;48.518;9.124;2023-05-20T11:21:45;21.90;99.90
31735;DHT22;18313;48.518;9.124;2023-05-20T11:24:13;22.00;98.70
31735;DHT22;18313;48.518;9.124;2023-05-20T11:26:40;21.80;99.90
31735;DHT22;18313;48.518;9.124;2023-05-20T11:29:07;21.60;99.30
31735;DHT22;18313;48.518;9.124;2023-05-20T11:31:37;21.50;99.60
31735;DHT22;18313;48.518;9.124;2023-05-20T11:34:04;21.80;99.40
31735;DHT22;18313;48.518;9.124;2023-05-20T11:36:31;21.80;98.90
31735;DHT22;18313;48.518;9.124;2023-05-20T11:38:59;21.70;99.30
31735;DHT22;18313;48.518;9.124;2023-05-20T11:41:27;22.00;99.70
31735;DHT22;18313;48.518;9.124;2023-05-20T11:43:58;22.20;99.90
31735;DHT22;18313;48.518;9.124;2023-05-20T11:46:26;22.40;98.80
31735;DHT22;18313;48.518;9.124;2023-05-20T11:48:54;22.70;98.80
31735;DHT22;18313;48.518;9.124;2023-05-20T11:51:28;22.90;98.00
31735;DHT22;18313;48.518;9.124;2023-05-20T11:54:02;23.00;98.10
31735;DHT22;18313;48.518;9.124;2023-05-20T11:56:32;22.70;99.80
31735;DHT22;18313;48.518;9.124;2023-05-20T11:59:00;22.90;98.90
31735;DHT22;18313;48.518;9.124;2023-05-20T12:01:31;22.70;97.30
31735;DHT22;18313;48.518;9.124;2023-05-20T12:04:07;22.60;98.10
31735;DHT22;18313;48.518;9.124;2023-05-20T12:06:35;22.60;98.60
31735;DHT22;18313;48.518;9.124;2023-05-20T12:09:06;22.40;98.10
31735;DHT22;18313;48.518;9.124;2023-05-20T12:11:35;22.20;99.40
31735;DHT22;18313;48.518;9.124;2023-05-20T12:14:03;22.10;98.70
31735;DHT22;18313;48.518;9.124;2023-05-20T12:16:32;22.10;98.30
31735;DHT22;18313;48.518;9.124;2023-05-20T12:18:59;22.40;99.20
31735;DHT22;18313;48.518;9.124;2023-05-20T12:21:30;22.60;98.30
31735;DHT22;18313;48.518;9.124;2023-05-20T12:23:58;22.80;98.10
31735;DHT22;18313;48.518;9.124;2023-05-20T12:26:26;22.80;98.30
31735;DHT22;18313;48.518;9.124;2023-05-20T12:28:54;22.80;97.80
31735;DHT22;18313;48.518;9.124;2023-05-20T12:31:21;22.90;97.80
31735;DHT22;18313;48.518;9.124;2023-05-20T12:33:49;23.10;98.50
31735;DHT22;18313;48.518;9.124;2023-05-20T12:36:16;23.20;97.40
31735;DHT22;18313;48.518;9.124;2023-05-20T12:38:45;22.90;97.30
31735;DHT22;18313;48.518;9.124;2023-05-20T12:41:12;23.10;97.60
31735;DHT22;18313;48.518;9.124;2023-05-20T12:43:40;23.40;97.10
31735;DHT22;18313;48.518;9.124;2023-05-20T12:46:07;23.80;98.20
31735;DHT22;18313;48.518;9.124;2023-05-20T12:48:34;24.00;97.30
31735;DHT22;18313;48.518;9.124;2023-05-20T12:51:03;24.00;97.30
31735;DHT22;18313;48.518;9.124;2023-05-20T12:53:30;24.20;96.80
31735;DHT22;18313;48.518;9.124;2023-05-20T12:55:57;24.20;96.10
31735;DHT22;18313;48.518;9.124;2023-05-20T12:58:24;24.00;96.40
31735;DHT22;18313;48.518;9.124;2023-05-20T13:00:51;23.80;96.60
31735;DHT22;18313;48.518;9.124;2023-05-20T13:03:19;23.30;96.50
31735;DHT22;18313;48.518;9.124;2023-05-20T13:05:46;23.10;97.00
31735;DHT22;18313;48.518;9.124;2023-05-20T13:08:13;23.20;97.10
31735;DHT22;18313;48.518;9.124;2023-05-20T13:10:40;23.30;97.20
31735;DHT22;18313;48.518;9.124;2023-05-20T13:13:08;23.40;96.60
31735;DHT22;18313;48.518;9.124;2023-05-20T13:15:35;23.40;96.90
31735;DHT22;18313;48.518;9.124;2023-05-20T13:18:03;23.30;96.80
31735;DHT22;18313;48.518;9.124;2023-05-20T13:20:32;23.30;96.60
31735;DHT22;18313;48.518;9.124;2023-05-20T13:23:01;23.20;96.60
31735;DHT22;18313;48.518;9.124;2023-05-20T13:25:28;23.10;96.50
31735;DHT22;18313;48.518;9.124;2023-05-20T13:27:55;23.20;97.60
31735;DHT22;18313;48.518;9.124;2023-05-20T13:30:22;23.30;96.70
31735;DHT22;18313;48.518;9.124;2023-05-20T13:32:50;23.40;96.10
31735;DHT22;18313;48.518;9.124;2023-05-20T13:35:17;23.40;96.20
31735;DHT22;18313;48.518;9.124;2023-05-20T13:37:44;23.60;95.90
31735;DHT22;18313;48.518;9.124;2023-05-20T13:40:12;23.60;95.70
31735;DHT22;18313;48.518;9.124;2023-05-20T13:42:39;23.50;95.70
31735;DHT22;18313;48.518;9.124;2023-05-20T13:45:06;23.50;96.40
31735;DHT22;18313;48.518;9.124;2023-05-20T13:47:33;23.60;96.10
31735;DHT22;18313;48.518;9.124;2023-05-20T13:50:01;23.70;96.00
31735;DHT22;18313;48.518;9.124;2023-05-20T13:52:29;23.60;96.00
31735;DHT22;18313;48.518;9.124;2023-05-20T13:54:56;23.70;96.30
31735;DHT22;18313;48.518;9.124;2023-05-20T13:57:23;23.70;96.30
31735;DHT22;18313;48.518;9.124;2023-05-20T13:59:50;23.70;95.50
31735;DHT22;18313;48.518;9.124;2023-05-20T14:02:18;23.70;96.20
31735;DHT22;18313;48.518;9.124;2023-05-20T14:04:45;23.70;96.00
31735;DHT22;18313;48.518;9.124;2023-05-20T14:07:13;23.90;96.10
31735;DHT22;18313;48.518;9.124;2023-05-20T14:09:40;24.20;95.70
31735;DHT22;18313;48.518;9.124;2023-05-20T14:12:07;24.20;94.90
31735;DHT22;18313;48.518;9.124;2023-05-20T14:14:35;24.10;95.10
31735;DHT22;18313;48.518;9.124;2023-05-20T14:17:02;23.80;95.00
31735;DHT22;18313;48.518;9.124;2023-05-20T14:19:29;23.60;94.70
31735;DHT22;18313;48.518;9.124;2023-05-20T14:21:56;23.70;94.30
31735;DHT22;18313;48.518;9.124;2023-05-20T14:24:26;23.70;95.20
31735;DHT22;18313;48.518;9.124;2023-05-20T14:26:54;23.60;94.10
31735;DHT22;18313;48.518;9.124;2023-05-20T14:29:21;23.40;94.50
31735;DHT22;18313;48.518;9.124;2023-05-20T14:31:48;23.20;94.50
31735;DHT22;18313;48.518;9.124;2023-05-20T14:34:16;23.10;94.40
31735;DHT22;18313;48.518;9.124;2023-05-20T14:36:43;23.00;95.00
31735;DHT22;18313;48.518;9.124;2023-05-20T14:39:10;23.20;95.00
31735;DHT22;18313;48.518;9.124;2023-05-20T14:41:37;23.40;94.90
31735;DHT22;18313;48.518;9.124;2023-05-20T14:44:04;23.60;95.00
31735;DHT22;18313;48.518;9.124;2023-05-20T14:46:31;23.70;94.60
31735;DHT22;18313;48.518;9.124;2023-05-20T14:48:59;23.70;94.60
31735;DHT22;18313;48.518;9.124;2023-05-20T14:51:26;23.60;94.40
31735;DHT22;18313;48.518;9.124;2023-05-20T14:53:53;23.60;94.60
31735;DHT22;18313;48.518;9.124;2023-05-20T14:56:35;23.90;95.30
31735;DHT22;18313;48.518;9.124;2023-05-20T14:59:02;24.00;94.50
31735;DHT22;18313;48.518;9.124;2023-05-20T15:01:29;24.10;94.10
31735;DHT22;18313;48.518;9.124;2023-05-20T15:03:57;24.10;94.00
31735;DHT22;18313;48.518;9.124;2023-05-20T15:06:24;24.10;93.50
31735;DHT22;18313;48.518;9.124;2023-05-20T15:08:52;24.00;93.50
31735;DHT22;18313;48.518;9.124;2023-05-20T15:11:19;23.80;93.90
31735;DHT22;18313;48.518;9.124;2023-05-20T15:13:47;23.90;94.80
31735;DHT22;18313;48.518;9.124;2023-05-20T15:16:14;24.20;94.00
31735;DHT22;18313;48.518;9.124;2023-05-20T15:18:41;24.30;93.20
31735;DHT22;18313;48.518;9.124;2023-05-20T15:21:08;24.60;93.70
31735;DHT22;18313;48.518;9.124;2023-05-20T15:23:35;24.70;94.00
31735;DHT22;18313;48.518;9.124;2023-05-20T15:26:02;24.40;93.40
31735;DHT22;18313;48.518;9.124;2023-05-20T15:28:30;24.00;93.70
31735;DHT22;18313;48.518;9.124;2023-05-20T15:30:57;23.90;94.20
31735;DHT22;18313;48.518;9.124;2023-05-20T15:33:24;24.00;94.40
31735;DHT22;18313;48.518;9.124;2023-05-20T15:35:51;24.20;94.40
31735;DHT22;18313;48.518;9.124;2023-05-20T15:38:18;24.50;93.50
31735;DHT22;18313;48.518;9.124;2023-05-20T15:40:45;24.80;93.60
31735;DHT22;18313;48.518;9.124;2023-05-20T15:43:13;25.00;93.10